Time,TemperatureF,DewpointF,PressureIn,WindDirection,WindDirectionDegrees,WindSpeedMPH,WindSpeedGustMPH,Humidity,HourlyPrecipIn,Conditions,Clouds,dailyrainin,SoftwareType,DateUTC
2013-08-06 00:05:00,69.2,67.4,30.05,South,171,0.0,5.0,94,0.00,,,0.00,Wunderground v.1.15,2013-08-06 04:05:00,
2013-08-06 00:10:00,69.2,67.4,30.04,SSE,157,0.0,5.0,94,0.00,,,0.00,Wunderground v.1.15,2013-08-06 04:10:00,
2013-08-06 00:15:00,69.2,67.4,30.04,SW,218,0.0,5.0,94,0.00,,,0.00,Wunderground v.1.15,2013-08-06 04:15:00,
2013-08-06 00:20:00,69.2,67.4,30.04,SSW,203,0.0,5.0,94,0.00,,,0.00,Wunderground v.1.15,2013-08-06 04:20:00,
2013-08-06 00:25:00,69.1,67.3,30.04,SSE,152,0.0,5.0,94,0.00,,,0.00,Wunderground v.1.15,2013-08-06 04:25:00,
2013-08-06 00:30:00,69.0,67.5,30.04,South,184,0.0,5.0,95,0.00,,,0.00,Wunderground v.1.15,2013-08-06 04:30:00,
2013-08-06 00:35:00,68.9,67.4,30.04,South,184,0.0,5.0,95,0.00,,,0.00,Wunderground v.1.15,2013-08-06 04:35:00,
2013-08-06 00:40:00,68.8,67.3,30.04,South,184,0.0,5.0,95,0.00,,,0.00,Wunderground v.1.15,2013-08-06 04:40:00,
2013-08-06 00:45:00,68.8,67.3,30.04,South,184,0.0,5.0,95,0.00,,,0.00,Wunderground v.1.15,2013-08-06 04:45:00,
2013-08-06 00:50:00,68.7,67.2,30.04,South,184,0.0,5.0,95,0.00,,,0.00,Wunderground v.1.15,2013-08-06 04:50:00,
2013-08-06 00:55:00,68.6,67.1,30.04,South,184,0.0,5.0,95,0.00,,,0.00,Wunderground v.1.15,2013-08-06 04:55:00,
2013-08-06 01:05:00,68.5,67.3,30.04,South,184,0.0,5.0,96,0.00,,,0.00,Wunderground v.1.15,2013-08-06 05:05:00,
2013-08-06 01:10:00,68.4,67.2,30.05,South,184,0.0,5.0,96,0.00,,,0.00,Wunderground v.1.15,2013-08-06 05:10:00,
2013-08-06 01:15:00,68.3,67.1,30.05,South,184,0.0,5.0,96,0.00,,,0.00,Wunderground v.1.15,2013-08-06 05:15:00,
2013-08-06 01:20:00,68.3,67.1,30.04,South,184,0.0,5.0,96,0.00,,,0.00,Wunderground v.1.15,2013-08-06 05:20:00,
2013-08-06 01:25:00,68.2,67.0,30.04,South,184,0.0,5.0,96,0.00,,,0.00,Wunderground v.1.15,2013-08-06 05:25:00,
2013-08-06 01:30:00,68.2,67.0,30.04,South,184,0.0,5.0,96,0.00,,,0.00,Wunderground v.1.15,2013-08-06 05:30:00,
2013-08-06 01:35:00,68.2,67.0,30.04,South,184,0.0,5.0,96,0.00,,,0.00,Wunderground v.1.15,2013-08-06 05:35:00,
2013-08-06 01:40:00,68.1,66.9,30.04,South,184,0.0,5.0,96,0.00,,,0.00,Wunderground v.1.15,2013-08-06 05:40:00,
2013-08-06 01:45:00,68.1,66.9,30.04,South,184,0.0,5.0,96,0.00,,,0.00,Wunderground v.1.15,2013-08-06 05:45:00,
2013-08-06 01:50:00,68.1,67.2,30.04,South,184,0.0,5.0,97,0.00,,,0.00,Wunderground v.1.15,2013-08-06 05:50:00,
2013-08-06 01:55:00,68.1,67.2,30.04,South,184,0.0,5.0,97,0.00,,,0.00,Wunderground v.1.15,2013-08-06 05:55:00,
2013-08-06 02:05:00,68.1,67.2,30.04,South,184,0.0,5.0,97,0.00,,,0.00,Wunderground v.1.15,2013-08-06 06:05:00,
2013-08-06 02:10:00,68.0,67.1,30.04,South,184,0.0,5.0,97,0.00,,,0.00,Wunderground v.1.15,2013-08-06 06:10:00,
2013-08-06 02:15:00,68.0,67.1,30.04,South,184,0.0,5.0,97,0.00,,,0.00,Wunderground v.1.15,2013-08-06 06:15:00,
2013-08-06 02:20:00,68.0,67.1,30.04,South,184,0.0,5.0,97,0.00,,,0.00,Wunderground v.1.15,2013-08-06 06:20:00,
2013-08-06 02:25:00,68.0,67.1,30.03,South,184,0.0,5.0,97,0.00,,,0.00,Wunderground v.1.15,2013-08-06 06:25:00,
2013-08-06 02:30:00,68.0,67.1,30.03,South,184,0.0,5.0,97,0.00,,,0.00,Wunderground v.1.15,2013-08-06 06:30:00,
2013-08-06 02:35:00,68.0,67.1,30.03,South,178,0.0,5.0,97,0.00,,,0.00,Wunderground v.1.15,2013-08-06 06:35:00,
2013-08-06 02:40:00,68.0,67.1,30.03,South,171,0.0,5.0,97,0.00,,,0.00,Wunderground v.1.15,2013-08-06 06:40:00,
2013-08-06 02:45:00,68.0,67.1,30.03,South,171,0.0,5.0,97,0.00,,,0.00,Wunderground v.1.15,2013-08-06 06:45:00,
2013-08-06 02:50:00,68.0,67.4,30.02,South,171,0.0,5.0,98,0.00,,,0.00,Wunderground v.1.15,2013-08-06 06:50:00,
2013-08-06 02:55:00,68.0,67.4,30.02,South,171,0.0,5.0,98,0.00,,,0.00,Wunderground v.1.15,2013-08-06 06:55:00,
2013-08-06 03:05:00,68.0,67.4,30.02,South,171,0.0,5.0,98,0.00,,,0.00,Wunderground v.1.15,2013-08-06 07:05:00,
2013-08-06 03:10:00,67.9,67.3,30.02,South,171,0.0,5.0,98,0.00,,,0.00,Wunderground v.1.15,2013-08-06 07:10:00,
2013-08-06 03:15:00,67.9,67.3,30.02,South,171,0.0,5.0,98,0.00,,,0.00,Wunderground v.1.15,2013-08-06 07:15:00,
2013-08-06 03:20:00,67.7,66.8,30.02,South,171,0.0,5.0,97,0.00,,,0.00,Wunderground v.1.15,2013-08-06 07:20:00,
2013-08-06 03:25:00,67.6,66.7,30.01,South,171,0.0,5.0,97,0.00,,,0.00,Wunderground v.1.15,2013-08-06 07:25:00,
2013-08-06 03:30:00,67.5,66.6,30.01,South,171,0.0,5.0,97,0.00,,,0.00,Wunderground v.1.15,2013-08-06 07:30:00,
2013-08-06 03:35:00,67.4,66.5,30.01,South,171,0.0,5.0,97,0.00,,,0.00,Wunderground v.1.15,2013-08-06 07:35:00,
2013-08-06 03:40:00,67.2,66.3,30.01,South,171,0.0,5.0,97,0.00,,,0.00,Wunderground v.1.15,2013-08-06 07:40:00,
2013-08-06 03:45:00,67.0,66.1,30.01,South,171,0.0,5.0,97,0.00,,,0.00,Wunderground v.1.15,2013-08-06 07:45:00,
2013-08-06 03:50:00,66.9,66.0,30.01,South,171,0.0,5.0,97,0.00,,,0.00,Wunderground v.1.15,2013-08-06 07:50:00,
2013-08-06 03:55:00,67.0,66.4,30.01,South,171,0.0,5.0,98,0.00,,,0.00,Wunderground v.1.15,2013-08-06 07:55:00,
2013-08-06 04:05:00,67.2,66.6,30.01,South,171,0.0,5.0,98,0.00,,,0.00,Wunderground v.1.15,2013-08-06 08:05:00,
2013-08-06 04:10:00,67.2,66.6,30.01,South,171,0.0,5.0,98,0.00,,,0.00,Wunderground v.1.15,2013-08-06 08:10:00,
2013-08-06 04:15:00,67.3,66.7,30.01,South,171,0.0,5.0,98,0.00,,,0.00,Wunderground v.1.15,2013-08-06 08:15:00,
2013-08-06 04:20:00,67.3,66.7,30.01,South,171,0.0,5.0,98,0.00,,,0.00,Wunderground v.1.15,2013-08-06 08:20:00,
2013-08-06 04:25:00,67.3,66.7,30.01,South,171,0.0,5.0,98,0.00,,,0.00,Wunderground v.1.15,2013-08-06 08:25:00,
2013-08-06 04:30:00,67.3,66.7,30.01,South,171,0.0,5.0,98,0.00,,,0.00,Wunderground v.1.15,2013-08-06 08:30:00,
2013-08-06 04:35:00,67.3,66.7,30.01,South,171,0.0,5.0,98,0.00,,,0.00,Wunderground v.1.15,2013-08-06 08:35:00,
2013-08-06 04:40:00,67.3,66.7,30.01,South,171,0.0,5.0,98,0.00,,,0.00,Wunderground v.1.15,2013-08-06 08:40:00,
2013-08-06 04:45:00,67.2,66.6,30.02,South,171,0.0,5.0,98,0.00,,,0.00,Wunderground v.1.15,2013-08-06 08:45:00,
2013-08-06 04:50:00,67.2,66.6,30.02,South,171,0.0,5.0,98,0.00,,,0.00,Wunderground v.1.15,2013-08-06 08:50:00,
2013-08-06 04:55:00,67.2,66.6,30.02,South,171,0.0,5.0,98,0.00,,,0.00,Wunderground v.1.15,2013-08-06 08:55:00,
2013-08-06 05:05:00,67.2,66.6,30.01,South,171,0.0,5.0,98,0.00,,,0.00,Wunderground v.1.15,2013-08-06 09:05:00,
2013-08-06 05:10:00,67.2,66.6,30.01,South,171,0.0,5.0,98,0.00,,,0.00,Wunderground v.1.15,2013-08-06 09:10:00,
2013-08-06 05:15:00,67.1,66.5,30.01,South,171,0.0,5.0,98,0.00,,,0.00,Wunderground v.1.15,2013-08-06 09:15:00,
2013-08-06 05:25:00,67.1,66.5,30.01,South,171,0.0,5.0,98,0.00,,,0.00,Wunderground v.1.15,2013-08-06 09:25:00,
2013-08-06 05:30:00,67.0,66.4,30.01,South,171,0.0,5.0,98,0.00,,,0.00,Wunderground v.1.15,2013-08-06 09:30:00,
2013-08-06 05:35:00,67.0,66.4,30.01,South,171,0.0,5.0,98,0.00,,,0.00,Wunderground v.1.15,2013-08-06 09:35:00,
2013-08-06 05:40:00,66.9,66.3,30.01,South,171,0.0,5.0,98,0.00,,,0.00,Wunderground v.1.15,2013-08-06 09:40:00,
2013-08-06 05:50:00,66.8,66.2,30.01,South,171,0.0,5.0,98,0.00,,,0.00,Wunderground v.1.15,2013-08-06 09:50:00,
2013-08-06 05:55:00,66.8,66.2,30.01,South,171,0.0,5.0,98,0.00,,,0.00,Wunderground v.1.15,2013-08-06 09:55:00,
2013-08-06 06:05:00,66.7,66.1,30.02,South,171,0.0,5.0,98,0.00,,,0.00,Wunderground v.1.15,2013-08-06 10:05:00,
2013-08-06 06:15:00,66.6,66.0,30.01,South,171,0.0,5.0,98,0.00,,,0.00,Wunderground v.1.15,2013-08-06 10:15:00,
2013-08-06 06:20:00,66.7,66.1,30.01,South,171,0.0,5.0,98,0.00,,,0.00,Wunderground v.1.15,2013-08-06 10:20:00,
2013-08-06 06:25:00,66.7,66.1,30.02,South,171,0.0,5.0,98,0.00,,,0.00,Wunderground v.1.15,2013-08-06 10:25:00,
2013-08-06 06:30:00,66.5,65.9,30.02,South,171,0.0,5.0,98,0.00,,,0.00,Wunderground v.1.15,2013-08-06 10:30:00,
2013-08-06 06:35:00,66.4,65.8,30.02,South,171,0.0,5.0,98,0.00,,,0.00,Wunderground v.1.15,2013-08-06 10:35:00,
2013-08-06 06:40:00,66.3,65.7,30.02,South,171,0.0,5.0,98,0.00,,,0.00,Wunderground v.1.15,2013-08-06 10:40:00,
2013-08-06 06:45:00,66.3,65.7,30.02,South,171,0.0,5.0,98,0.00,,,0.00,Wunderground v.1.15,2013-08-06 10:45:00,
2013-08-06 06:50:00,66.2,65.6,30.03,South,171,0.0,5.0,98,0.00,,,0.00,Wunderground v.1.15,2013-08-06 10:50:00,
2013-08-06 06:55:00,66.2,65.6,30.02,South,171,0.0,5.0,98,0.00,,,0.00,Wunderground v.1.15,2013-08-06 10:55:00,
2013-08-06 07:05:00,66.1,65.5,30.03,South,171,0.0,5.0,98,0.00,,,0.00,Wunderground v.1.15,2013-08-06 11:05:00,
2013-08-06 07:10:00,65.9,65.3,30.04,South,171,0.0,5.0,98,0.00,,,0.00,Wunderground v.1.15,2013-08-06 11:10:00,
2013-08-06 07:15:00,65.9,65.3,30.04,South,171,0.0,5.0,98,0.00,,,0.00,Wunderground v.1.15,2013-08-06 11:15:00,
2013-08-06 07:20:00,66.0,65.4,30.04,South,171,0.0,5.0,98,0.00,,,0.00,Wunderground v.1.15,2013-08-06 11:20:00,
2013-08-06 07:25:00,66.0,65.4,30.04,South,171,0.0,5.0,98,0.00,,,0.00,Wunderground v.1.15,2013-08-06 11:25:00,
2013-08-06 07:30:00,66.1,65.5,30.04,South,171,0.0,5.0,98,0.00,,,0.00,Wunderground v.1.15,2013-08-06 11:30:00,
2013-08-06 07:35:00,66.0,65.4,30.04,SSE,153,0.0,5.0,98,0.00,,,0.00,Wunderground v.1.15,2013-08-06 11:35:00,
2013-08-06 07:40:00,65.9,65.3,30.04,SE,138,0.0,5.0,98,0.00,,,0.00,Wunderground v.1.15,2013-08-06 11:40:00,
2013-08-06 07:45:00,65.7,65.1,30.05,SE,138,0.0,5.0,98,0.00,,,0.00,Wunderground v.1.15,2013-08-06 11:45:00,
2013-08-06 07:50:00,65.7,64.8,30.05,SE,138,0.0,5.0,97,0.00,,,0.00,Wunderground v.1.15,2013-08-06 11:50:00,
2013-08-06 07:55:00,65.7,65.1,30.05,SE,138,0.0,5.0,98,0.00,,,0.00,Wunderground v.1.15,2013-08-06 11:55:00,
2013-08-06 08:05:00,65.8,64.9,30.05,SE,138,0.0,5.0,97,0.00,,,0.00,Wunderground v.1.15,2013-08-06 12:05:00,
2013-08-06 08:10:00,65.9,65.3,30.05,SE,138,0.0,5.0,98,0.00,,,0.00,Wunderground v.1.15,2013-08-06 12:10:00,
2013-08-06 08:15:00,65.9,65.3,30.05,SE,138,0.0,5.0,98,0.00,,,0.00,Wunderground v.1.15,2013-08-06 12:15:00,
2013-08-06 08:20:00,65.8,64.6,30.05,SE,138,0.0,5.0,96,0.00,,,0.00,Wunderground v.1.15,2013-08-06 12:20:00,
2013-08-06 08:25:00,65.7,64.5,30.06,SE,138,0.0,5.0,96,0.00,,,0.00,Wunderground v.1.15,2013-08-06 12:25:00,
2013-08-06 08:30:00,65.7,64.5,30.06,SE,138,0.0,5.0,96,0.00,,,0.00,Wunderground v.1.15,2013-08-06 12:30:00,
2013-08-06 08:35:00,65.8,64.6,30.06,SE,138,0.0,5.0,96,0.00,,,0.00,Wunderground v.1.15,2013-08-06 12:35:00,
2013-08-06 08:40:00,65.8,64.6,30.06,SE,138,0.0,5.0,96,0.00,,,0.00,Wunderground v.1.15,2013-08-06 12:40:00,
2013-08-06 08:45:00,65.9,64.7,30.06,SE,138,0.0,5.0,96,0.00,,,0.00,Wunderground v.1.15,2013-08-06 12:45:00,
2013-08-06 08:50:00,66.0,64.8,30.06,SE,138,0.0,5.0,96,0.00,,,0.00,Wunderground v.1.15,2013-08-06 12:50:00,
2013-08-06 08:55:00,66.1,64.6,30.06,SE,138,0.0,5.0,95,0.00,,,0.00,Wunderground v.1.15,2013-08-06 12:55:00,
2013-08-06 09:05:00,66.3,64.8,30.06,SE,138,0.0,5.0,95,0.00,,,0.00,Wunderground v.1.15,2013-08-06 13:05:00,
2013-08-06 09:10:00,66.3,64.8,30.06,SE,138,0.0,5.0,95,0.00,,,0.00,Wunderground v.1.15,2013-08-06 13:10:00,
2013-08-06 09:15:00,66.4,64.9,30.06,SE,138,1.0,1.0,95,0.00,,,0.00,Wunderground v.1.15,2013-08-06 13:15:00,
2013-08-06 09:20:00,66.5,65.0,30.07,SE,138,0.0,5.0,95,0.00,,,0.00,Wunderground v.1.15,2013-08-06 13:20:00,
2013-08-06 09:30:00,66.7,65.2,30.06,SE,138,0.0,5.0,95,0.00,,,0.00,Wunderground v.1.15,2013-08-06 13:30:00,
2013-08-06 09:40:00,67.3,65.8,30.07,SE,138,0.0,5.0,95,0.00,,,0.00,Wunderground v.1.15,2013-08-06 13:40:00,
2013-08-06 09:45:00,67.4,65.0,30.07,SE,138,0.0,5.0,92,0.00,,,0.00,Wunderground v.1.15,2013-08-06 13:45:00,
2013-08-06 09:55:00,67.7,65.3,30.07,SE,138,0.0,5.0,92,0.00,,,0.00,Wunderground v.1.15,2013-08-06 13:55:00,
2013-08-06 10:05:00,68.1,65.4,30.08,SE,138,0.0,5.0,91,0.00,,,0.00,Wunderground v.1.15,2013-08-06 14:05:00,
2013-08-06 10:10:00,68.3,65.3,30.07,SE,138,0.0,5.0,90,0.00,,,0.00,Wunderground v.1.15,2013-08-06 14:10:00,
2013-08-06 10:15:00,68.5,65.4,30.08,SE,138,0.0,5.0,90,0.00,,,0.00,Wunderground v.1.15,2013-08-06 14:15:00,
2013-08-06 10:20:00,68.8,65.7,30.08,SE,138,0.0,5.0,90,0.00,,,0.00,Wunderground v.1.15,2013-08-06 14:20:00,
2013-08-06 10:25:00,68.9,65.8,30.08,SE,138,1.0,1.0,90,0.00,,,0.00,Wunderground v.1.15,2013-08-06 14:25:00,
2013-08-06 10:30:00,69.0,65.3,30.08,SE,138,1.0,5.0,88,0.00,,,0.00,Wunderground v.1.15,2013-08-06 14:30:00,
2013-08-06 10:35:00,69.3,65.3,30.08,SE,138,0.0,5.0,87,0.00,,,0.00,Wunderground v.1.15,2013-08-06 14:35:00,
2013-08-06 10:40:00,69.5,65.5,30.08,SE,138,0.0,5.0,87,0.00,,,0.00,Wunderground v.1.15,2013-08-06 14:40:00,
2013-08-06 10:45:00,69.9,65.2,30.08,SE,138,0.0,5.0,85,0.00,,,0.00,Wunderground v.1.15,2013-08-06 14:45:00,
2013-08-06 10:50:00,70.2,65.5,30.08,WSW,245,0.0,5.0,85,0.00,,,0.00,Wunderground v.1.15,2013-08-06 14:50:00,
2013-08-06 10:55:00,70.3,65.2,30.08,WSW,245,0.0,5.0,84,0.00,,,0.00,Wunderground v.1.15,2013-08-06 14:55:00,
2013-08-06 11:05:00,70.5,64.7,30.07,WSW,245,0.0,5.0,82,0.00,,,0.00,Wunderground v.1.15,2013-08-06 15:05:00,
2013-08-06 11:10:00,70.9,65.5,30.07,SSE,158,0.0,5.0,83,0.00,,,0.00,Wunderground v.1.15,2013-08-06 15:10:00,
2013-08-06 11:15:00,71.1,65.3,30.07,SSE,158,0.0,5.0,82,0.00,,,0.00,Wunderground v.1.15,2013-08-06 15:15:00,
2013-08-06 11:20:00,71.3,65.5,30.07,WNW,294,1.0,5.0,82,0.00,,,0.00,Wunderground v.1.15,2013-08-06 15:20:00,
2013-08-06 11:25:00,71.6,66.2,30.07,North,5,0.0,5.0,83,0.00,,,0.00,Wunderground v.1.15,2013-08-06 15:25:00,
2013-08-06 11:30:00,72.0,65.5,30.07,SSE,168,0.0,5.0,80,0.00,,,0.00,Wunderground v.1.15,2013-08-06 15:30:00,
2013-08-06 11:35:00,72.2,65.3,30.07,SSE,168,0.0,5.0,79,0.00,,,0.00,Wunderground v.1.15,2013-08-06 15:35:00,
2013-08-06 11:40:00,72.4,65.9,30.07,SSW,213,1.0,5.0,80,0.00,,,0.00,Wunderground v.1.15,2013-08-06 15:40:00,
2013-08-06 11:45:00,72.8,65.9,30.07,SSW,213,0.0,5.0,79,0.00,,,0.00,Wunderground v.1.15,2013-08-06 15:45:00,
2013-08-06 11:50:00,73.1,65.8,30.07,SW,214,0.0,5.0,78,0.00,,,0.00,Wunderground v.1.15,2013-08-06 15:50:00,
2013-08-06 11:55:00,73.6,66.7,30.07,SW,214,0.0,5.0,79,0.00,,,0.00,Wunderground v.1.15,2013-08-06 15:55:00,
2013-08-06 12:05:00,73.8,65.8,30.07,East,89,1.0,1.0,76,0.00,,,0.00,Wunderground v.1.15,2013-08-06 16:05:00,
2013-08-06 12:10:00,73.8,66.1,30.07,East,89,1.0,5.0,77,0.00,,,0.00,Wunderground v.1.15,2013-08-06 16:10:00,
2013-08-06 12:15:00,73.9,66.6,30.08,East,90,0.0,5.0,78,0.00,,,0.00,Wunderground v.1.15,2013-08-06 16:15:00,
2013-08-06 12:20:00,74.0,67.1,30.08,SSW,192,0.0,5.0,79,0.00,,,0.00,Wunderground v.1.15,2013-08-06 16:20:00,
2013-08-06 12:25:00,74.5,66.8,30.08,SSW,192,0.0,5.0,77,0.00,,,0.00,Wunderground v.1.15,2013-08-06 16:25:00,
2013-08-06 12:30:00,74.8,67.1,30.08,SSW,192,0.0,5.0,77,0.00,,,0.00,Wunderground v.1.15,2013-08-06 16:30:00,
2013-08-06 12:35:00,74.8,66.7,30.08,SSW,195,0.0,5.0,76,0.00,,,0.00,Wunderground v.1.15,2013-08-06 16:35:00,
2013-08-06 12:40:00,74.8,67.1,30.08,SE,135,0.0,5.0,77,0.00,,,0.00,Wunderground v.1.15,2013-08-06 16:40:00,
2013-08-06 12:45:00,74.9,67.2,30.08,SE,135,0.0,5.0,77,0.00,,,0.00,Wunderground v.1.15,2013-08-06 16:45:00,
2013-08-06 12:50:00,75.0,66.9,30.08,SSW,192,0.0,5.0,76,0.00,,,0.00,Wunderground v.1.15,2013-08-06 16:50:00,
2013-08-06 12:55:00,74.8,66.3,30.08,ESE,121,1.0,5.0,75,0.00,,,0.00,Wunderground v.1.15,2013-08-06 16:55:00,
2013-08-06 13:05:00,74.5,65.3,30.08,SE,141,0.0,5.0,73,0.00,,,0.00,Wunderground v.1.15,2013-08-06 17:05:00,
2013-08-06 13:10:00,74.6,65.4,30.07,SE,130,0.0,5.0,73,0.00,,,0.00,Wunderground v.1.15,2013-08-06 17:10:00,
2013-08-06 13:20:00,75.6,66.7,30.07,SE,130,0.0,5.0,74,0.00,,,0.00,Wunderground v.1.15,2013-08-06 17:20:00,
2013-08-06 13:25:00,75.9,65.8,30.07,SE,131,0.0,5.0,71,0.00,,,0.00,Wunderground v.1.15,2013-08-06 17:25:00,
2013-08-06 13:30:00,76.3,65.8,30.07,West,263,1.0,5.0,70,0.00,,,0.00,Wunderground v.1.15,2013-08-06 17:30:00,
2013-08-06 13:35:00,76.6,65.2,30.07,East,86,1.0,1.0,68,0.00,,,0.00,Wunderground v.1.15,2013-08-06 17:35:00,
2013-08-06 13:45:00,76.9,65.1,30.06,ESE,119,1.0,1.0,67,0.00,,,0.00,Wunderground v.1.15,2013-08-06 17:45:00,
2013-08-06 13:50:00,77.3,65.9,30.06,ESE,122,0.0,5.0,68,0.00,,,0.00,Wunderground v.1.15,2013-08-06 17:50:00,
2013-08-06 13:55:00,77.4,65.1,30.06,ESE,121,0.0,5.0,66,0.00,,,0.00,Wunderground v.1.15,2013-08-06 17:55:00,
2013-08-06 14:05:00,77.4,65.6,30.06,ENE,76,1.0,1.0,67,0.00,,,0.00,Wunderground v.1.15,2013-08-06 18:05:00,
2013-08-06 14:10:00,77.9,66.5,30.06,South,174,1.0,5.0,68,0.00,,,0.00,Wunderground v.1.15,2013-08-06 18:10:00,
2013-08-06 14:15:00,77.8,66.8,30.06,South,174,1.0,5.0,69,0.00,,,0.00,Wunderground v.1.15,2013-08-06 18:15:00,
2013-08-06 14:20:00,77.8,67.2,30.06,SSE,153,1.0,5.0,70,0.00,,,0.00,Wunderground v.1.15,2013-08-06 18:20:00,
2013-08-06 14:25:00,78.4,67.0,30.06,WSW,248,0.0,5.0,68,0.00,,,0.00,Wunderground v.1.15,2013-08-06 18:25:00,
2013-08-06 14:30:00,78.3,66.4,30.06,WSW,248,0.0,5.0,67,0.00,,,0.00,Wunderground v.1.15,2013-08-06 18:30:00,
2013-08-06 14:35:00,78.2,67.6,30.06,WSW,248,0.0,5.0,70,0.00,,,0.00,Wunderground v.1.15,2013-08-06 18:35:00,
2013-08-06 14:40:00,78.6,68.0,30.06,WSW,258,0.0,5.0,70,0.00,,,0.00,Wunderground v.1.15,2013-08-06 18:40:00,
2013-08-06 14:45:00,79.1,66.8,30.06,SSE,165,0.0,5.0,66,0.00,,,0.00,Wunderground v.1.15,2013-08-06 18:45:00,
2013-08-06 14:50:00,79.2,67.7,30.05,SSE,165,1.0,5.0,68,0.00,,,0.00,Wunderground v.1.15,2013-08-06 18:50:00,
2013-08-06 15:05:00,79.2,66.4,30.05,SSE,167,1.0,1.0,65,0.00,,,0.00,Wunderground v.1.15,2013-08-06 19:05:00,
2013-08-06 15:10:00,79.4,66.2,30.05,SSE,167,1.0,5.0,64,0.00,,,0.00,Wunderground v.1.15,2013-08-06 19:10:00,
2013-08-06 15:15:00,80.2,67.8,30.05,SSE,163,0.0,5.0,66,0.00,,,0.00,Wunderground v.1.15,2013-08-06 19:15:00,
2013-08-06 15:20:00,80.1,66.4,30.04,SSE,162,1.0,5.0,63,0.00,,,0.00,Wunderground v.1.15,2013-08-06 19:20:00,
2013-08-06 15:25:00,79.9,66.6,30.05,SW,223,2.0,2.0,64,0.00,,,0.00,Wunderground v.1.15,2013-08-06 19:25:00,
2013-08-06 15:30:00,80.0,66.7,30.05,SW,223,1.0,5.0,64,0.00,,,0.00,Wunderground v.1.15,2013-08-06 19:30:00,
2013-08-06 15:35:00,79.9,65.7,30.04,SE,138,0.0,5.0,62,0.00,,,0.00,Wunderground v.1.15,2013-08-06 19:35:00,
2013-08-06 15:45:00,80.8,66.6,30.04,South,173,0.0,5.0,62,0.00,,,0.00,Wunderground v.1.15,2013-08-06 19:45:00,
2013-08-06 15:50:00,81.2,68.3,30.04,South,174,0.0,5.0,65,0.00,,,0.00,Wunderground v.1.15,2013-08-06 19:50:00,
2013-08-06 16:05:00,81.0,68.1,30.03,ESE,113,0.0,5.0,65,0.00,,,0.00,Wunderground v.1.15,2013-08-06 20:05:00,
2013-08-06 16:10:00,81.2,67.9,30.03,East,98,0.0,5.0,64,0.00,,,0.00,Wunderground v.1.15,2013-08-06 20:10:00,
2013-08-06 16:15:00,81.6,69.1,30.03,East,98,0.0,5.0,66,0.00,,,0.00,Wunderground v.1.15,2013-08-06 20:15:00,
2013-08-06 16:20:00,81.8,69.3,30.03,NE,41,0.0,5.0,66,0.00,,,0.00,Wunderground v.1.15,2013-08-06 20:20:00,
2013-08-06 16:25:00,81.5,69.0,30.03,SSW,211,0.0,5.0,66,0.00,,,0.00,Wunderground v.1.15,2013-08-06 20:25:00,
2013-08-06 16:30:00,81.6,67.8,30.03,WNW,300,1.0,5.0,63,0.00,,,0.00,Wunderground v.1.15,2013-08-06 20:30:00,
2013-08-06 16:35:00,81.3,68.9,30.03,WNW,300,0.0,5.0,66,0.00,,,0.00,Wunderground v.1.15,2013-08-06 20:35:00,
2013-08-06 16:40:00,80.7,69.6,30.03,SE,146,0.0,5.0,69,0.00,,,0.00,Wunderground v.1.15,2013-08-06 20:40:00,
2013-08-06 16:45:00,80.2,69.9,30.03,SE,146,0.0,5.0,71,0.00,,,0.00,Wunderground v.1.15,2013-08-06 20:45:00,
2013-08-06 16:50:00,79.6,69.4,30.02,East,92,1.0,5.0,71,0.00,,,0.00,Wunderground v.1.15,2013-08-06 20:50:00,
2013-08-06 16:55:00,79.5,70.5,30.03,ESE,107,1.0,1.0,74,0.00,,,0.00,Wunderground v.1.15,2013-08-06 20:55:00,
2013-08-06 17:05:00,79.1,69.7,30.03,SSE,148,0.0,5.0,73,0.00,,,0.00,Wunderground v.1.15,2013-08-06 21:05:00,
2013-08-06 17:10:00,78.6,69.6,30.03,SSE,148,1.0,5.0,74,0.00,,,0.00,Wunderground v.1.15,2013-08-06 21:10:00,
2013-08-06 17:15:00,78.5,70.7,30.03,SSW,200,0.0,5.0,77,0.00,,,0.00,Wunderground v.1.15,2013-08-06 21:15:00,
2013-08-06 17:20:00,78.6,70.4,30.03,SSW,208,0.0,5.0,76,0.00,,,0.00,Wunderground v.1.15,2013-08-06 21:20:00,
2013-08-06 17:25:00,78.7,69.7,30.03,South,190,0.0,5.0,74,0.00,,,0.00,Wunderground v.1.15,2013-08-06 21:25:00,
2013-08-06 17:30:00,78.7,70.1,30.03,South,190,0.0,5.0,75,0.00,,,0.00,Wunderground v.1.15,2013-08-06 21:30:00,
2013-08-06 17:35:00,78.8,70.2,30.03,South,190,0.0,5.0,75,0.00,,,0.00,Wunderground v.1.15,2013-08-06 21:35:00,
2013-08-06 17:40:00,78.3,69.7,30.03,West,265,1.0,5.0,75,0.00,,,0.00,Wunderground v.1.15,2013-08-06 21:40:00,
2013-08-06 17:45:00,77.9,69.7,30.03,East,94,1.0,1.0,76,0.00,,,0.00,Wunderground v.1.15,2013-08-06 21:45:00,
2013-08-06 17:50:00,77.5,69.7,30.03,SE,142,0.0,5.0,77,0.00,,,0.00,Wunderground v.1.15,2013-08-06 21:50:00,
2013-08-06 17:55:00,77.1,69.3,30.03,SE,137,0.0,5.0,77,0.00,,,0.00,Wunderground v.1.15,2013-08-06 21:55:00,
2013-08-06 18:05:00,76.5,69.5,30.04,SW,214,0.0,5.0,79,0.00,,,0.00,Wunderground v.1.15,2013-08-06 22:05:00,
2013-08-06 18:10:00,76.3,69.3,30.04,SW,214,0.0,5.0,79,0.00,,,0.00,Wunderground v.1.15,2013-08-06 22:10:00,
2013-08-06 18:20:00,76.2,69.6,30.04,South,173,0.0,5.0,80,0.00,,,0.00,Wunderground v.1.15,2013-08-06 22:20:00,
2013-08-06 18:25:00,76.3,69.7,30.04,West,267,0.0,5.0,80,0.00,,,0.00,Wunderground v.1.15,2013-08-06 22:25:00,
2013-08-06 18:30:00,76.5,69.9,30.04,SSW,199,0.0,5.0,80,0.00,,,0.00,Wunderground v.1.15,2013-08-06 22:30:00,
2013-08-06 18:35:00,76.2,69.6,30.04,SW,223,0.0,5.0,80,0.00,,,0.00,Wunderground v.1.15,2013-08-06 22:35:00,
2013-08-06 18:40:00,75.9,69.3,30.04,SW,223,0.0,5.0,80,0.00,,,0.00,Wunderground v.1.15,2013-08-06 22:40:00,
2013-08-06 18:45:00,75.5,69.3,30.04,West,260,0.0,5.0,81,0.00,,,0.00,Wunderground v.1.15,2013-08-06 22:45:00,
2013-08-06 18:50:00,75.2,69.0,30.04,West,260,0.0,5.0,81,0.00,,,0.00,Wunderground v.1.15,2013-08-06 22:50:00,
2013-08-06 18:55:00,75.1,69.2,30.04,West,260,0.0,5.0,82,0.00,,,0.00,Wunderground v.1.15,2013-08-06 22:55:00,
2013-08-06 19:05:00,74.7,68.8,30.04,WSW,242,0.0,5.0,82,0.00,,,0.00,Wunderground v.1.15,2013-08-06 23:05:00,
2013-08-06 19:10:00,74.5,69.0,30.04,WSW,242,0.0,5.0,83,0.00,,,0.00,Wunderground v.1.15,2013-08-06 23:10:00,
2013-08-06 19:15:00,74.2,68.7,30.04,SSE,153,0.0,5.0,83,0.00,,,0.00,Wunderground v.1.15,2013-08-06 23:15:00,
2013-08-06 19:20:00,73.9,68.8,30.04,SSE,159,0.0,5.0,84,0.00,,,0.00,Wunderground v.1.15,2013-08-06 23:20:00,
2013-08-06 19:25:00,73.6,68.8,30.04,SSE,159,0.0,5.0,85,0.00,,,0.00,Wunderground v.1.15,2013-08-06 23:25:00,
2013-08-06 19:30:00,73.0,68.6,30.04,West,264,0.0,5.0,86,0.00,,,0.00,Wunderground v.1.15,2013-08-06 23:30:00,
2013-08-06 19:35:00,72.6,68.5,30.04,West,277,0.0,5.0,87,0.00,,,0.00,Wunderground v.1.15,2013-08-06 23:35:00,
2013-08-06 19:40:00,72.3,68.2,30.04,West,278,0.0,5.0,87,0.00,,,0.00,Wunderground v.1.15,2013-08-06 23:40:00,
2013-08-06 19:45:00,72.0,67.9,30.04,WNW,288,0.0,5.0,87,0.00,,,0.00,Wunderground v.1.15,2013-08-06 23:45:00,
2013-08-06 19:50:00,71.7,68.0,30.05,SW,226,0.0,5.0,88,0.00,,,0.00,Wunderground v.1.15,2013-08-06 23:50:00,
2013-08-06 19:55:00,71.4,67.7,30.05,NE,43,0.0,5.0,88,0.00,,,0.00,Wunderground v.1.15,2013-08-06 23:55:00,
2013-08-06 20:05:00,71.1,67.7,30.05,West,271,0.0,5.0,89,0.00,,,0.00,Wunderground v.1.15,2013-08-07 00:05:00,
2013-08-06 20:10:00,71.0,67.9,30.05,West,267,0.0,5.0,90,0.00,,,0.00,Wunderground v.1.15,2013-08-07 00:10:00,
2013-08-06 20:15:00,70.8,67.7,30.06,West,267,0.0,5.0,90,0.00,,,0.00,Wunderground v.1.15,2013-08-07 00:15:00,
2013-08-06 20:20:00,70.7,67.9,30.06,SSW,192,0.0,5.0,91,0.00,,,0.00,Wunderground v.1.15,2013-08-07 00:20:00,
2013-08-06 20:25:00,70.6,67.8,30.06,WSW,243,0.0,5.0,91,0.00,,,0.00,Wunderground v.1.15,2013-08-07 00:25:00,
2013-08-06 20:30:00,70.4,67.6,30.06,SW,222,0.0,5.0,91,0.00,,,0.00,Wunderground v.1.15,2013-08-07 00:30:00,
2013-08-06 20:35:00,70.4,68.0,30.06,SW,222,0.0,5.0,92,0.00,,,0.00,Wunderground v.1.15,2013-08-07 00:35:00,
2013-08-06 20:40:00,70.4,68.0,30.06,SW,223,0.0,5.0,92,0.00,,,0.00,Wunderground v.1.15,2013-08-07 00:40:00,
2013-08-06 20:45:00,70.3,67.9,30.06,SW,223,0.0,5.0,92,0.00,,,0.00,Wunderground v.1.15,2013-08-07 00:45:00,
2013-08-06 20:50:00,70.2,68.1,30.06,SW,223,0.0,5.0,93,0.00,,,0.00,Wunderground v.1.15,2013-08-07 00:50:00,
2013-08-06 20:55:00,70.1,68.0,30.06,SW,225,0.0,5.0,93,0.00,,,0.00,Wunderground v.1.15,2013-08-07 00:55:00,
2013-08-06 21:05:00,70.0,67.9,30.06,SSW,209,0.0,5.0,93,0.00,,,0.00,Wunderground v.1.15,2013-08-07 01:05:00,
2013-08-06 21:10:00,69.9,67.8,30.06,SSW,209,0.0,5.0,93,0.00,,,0.00,Wunderground v.1.15,2013-08-07 01:10:00,
2013-08-06 21:15:00,69.8,68.0,30.06,WNW,300,0.0,5.0,94,0.00,,,0.00,Wunderground v.1.15,2013-08-07 01:15:00,
2013-08-06 21:20:00,69.6,67.8,30.06,ESE,105,0.0,5.0,94,0.00,,,0.00,Wunderground v.1.15,2013-08-07 01:20:00,
2013-08-06 21:25:00,69.4,67.6,30.07,WSW,246,0.0,5.0,94,0.00,,,0.00,Wunderground v.1.15,2013-08-07 01:25:00,
2013-08-06 21:30:00,69.3,67.5,30.07,WSW,248,0.0,5.0,94,0.00,,,0.00,Wunderground v.1.15,2013-08-07 01:30:00,
2013-08-06 21:35:00,69.1,67.6,30.07,West,269,0.0,5.0,95,0.00,,,0.00,Wunderground v.1.15,2013-08-07 01:35:00,
2013-08-06 21:40:00,69.0,67.5,30.08,West,275,0.0,5.0,95,0.00,,,0.00,Wunderground v.1.15,2013-08-07 01:40:00,
2013-08-06 21:45:00,68.9,67.4,30.08,WNW,282,0.0,5.0,95,0.00,,,0.00,Wunderground v.1.15,2013-08-07 01:45:00,
2013-08-06 21:50:00,68.7,67.2,30.08,WNW,288,0.0,5.0,95,0.00,,,0.00,Wunderground v.1.15,2013-08-07 01:50:00,
2013-08-06 21:55:00,68.7,67.2,30.08,WNW,288,0.0,5.0,95,0.00,,,0.00,Wunderground v.1.15,2013-08-07 01:55:00,
2013-08-06 22:05:00,68.5,67.3,30.08,SW,236,1.0,1.0,96,0.00,,,0.00,Wunderground v.1.15,2013-08-07 02:05:00,
2013-08-06 22:10:00,68.3,67.1,30.09,West,267,0.0,5.0,96,0.00,,,0.00,Wunderground v.1.15,2013-08-07 02:10:00,
2013-08-06 22:15:00,68.3,67.1,30.09,SE,127,0.0,5.0,96,0.00,,,0.00,Wunderground v.1.15,2013-08-07 02:15:00,
2013-08-06 22:20:00,68.2,67.0,30.09,WSW,239,0.0,5.0,96,0.00,,,0.00,Wunderground v.1.15,2013-08-07 02:20:00,
2013-08-06 22:25:00,68.1,66.9,30.09,SSW,198,0.0,5.0,96,0.00,,,0.00,Wunderground v.1.15,2013-08-07 02:25:00,
2013-08-06 22:30:00,68.1,66.9,30.09,SSE,157,0.0,5.0,96,0.00,,,0.00,Wunderground v.1.15,2013-08-07 02:30:00,
2013-08-06 22:35:00,68.1,66.9,30.09,SSE,157,0.0,5.0,96,0.00,,,0.00,Wunderground v.1.15,2013-08-07 02:35:00,
2013-08-06 22:40:00,68.0,66.8,30.09,SSE,157,0.0,5.0,96,0.00,,,0.00,Wunderground v.1.15,2013-08-07 02:40:00,
2013-08-06 22:45:00,68.0,66.8,30.09,SSE,157,0.0,5.0,96,0.00,,,0.00,Wunderground v.1.15,2013-08-07 02:45:00,
2013-08-06 22:50:00,68.0,66.8,30.09,SSE,157,0.0,5.0,96,0.00,,,0.00,Wunderground v.1.15,2013-08-07 02:50:00,
2013-08-06 22:55:00,68.0,66.8,30.09,SSE,157,0.0,5.0,96,0.00,,,0.00,Wunderground v.1.15,2013-08-07 02:55:00,
2013-08-06 23:05:00,68.0,67.1,30.09,South,179,0.0,5.0,97,0.11,,,0.05,Wunderground v.1.15,2013-08-07 03:05:00,
2013-08-06 23:10:00,68.0,67.1,30.09,South,179,0.0,5.0,97,0.09,,,0.06,Wunderground v.1.15,2013-08-07 03:10:00,
2013-08-06 23:20:00,67.9,67.0,30.10,South,184,0.0,5.0,97,0.04,,,0.06,Wunderground v.1.15,2013-08-07 03:20:00,
2013-08-06 23:25:00,67.9,67.0,30.10,South,169,0.0,5.0,97,0.00,,,0.06,Wunderground v.1.15,2013-08-07 03:25:00,
2013-08-06 23:30:00,67.8,66.9,30.10,South,169,0.0,5.0,97,0.00,,,0.06,Wunderground v.1.15,2013-08-07 03:30:00,
2013-08-06 23:35:00,67.8,66.9,30.10,South,169,0.0,5.0,97,0.00,,,0.06,Wunderground v.1.15,2013-08-07 03:35:00,
2013-08-06 23:40:00,67.7,66.8,30.10,South,169,0.0,5.0,97,0.00,,,0.06,Wunderground v.1.15,2013-08-07 03:40:00,
2013-08-06 23:45:00,67.7,66.8,30.10,South,169,0.0,5.0,97,0.00,,,0.06,Wunderground v.1.15,2013-08-07 03:45:00,
2013-08-06 23:50:00,67.7,66.8,30.10,South,169,0.0,5.0,97,0.00,,,0.06,Wunderground v.1.15,2013-08-07 03:50:00,